Albany, MN (56307)

8:52 PM CDT on September 04, 2015 (GMT -0500)
Century Estates | | Change Station
CLOSE
Current Station
Personal Weather Station
Location: Cold Spring, MN
Elevation: 1165 ft
Nearby Weather Stations

Elev 1165 ft 45.44 °N, 94.43 °W | Updated 16 seconds ago

Mostly Cloudy
Mostly Cloudy
78.9 °F
Feels Like 82 °F
N
1.0
Wind Variable Wind from SSE
Gusts 1.0 mph

Today
High -- | Low -- °F
--% Chance of Precip.
Yesterday
High -- | Low -- °F
Precip. -- in
6:42 AM 7:50 PM
Waning Gibbous, 54% visible
Pressure 29.89 in
Visibility 10.0 miles
Clouds Scattered Clouds 5000 ft
Scattered Clouds 7000 ft
Mostly Cloudy 12000 ft
Heat Index 82 °F
Dew Point 74 °F
Humidity 86%
Rainfall 0.00 in
Snow Depth Not available.
UV 0 out of 12
Pollen 9.70 out of 12
Air Quality Not available.
Flu Activity Not available.
METAR KD39 050134Z AUTO 18006KT 10SM -RA SCT050 SCT070 BKN120 25/23 A2989 RMK AO2 LTG DSNT N P0001 T02470227
Pressure 29.89 in
Visibility 10.0 miles
Clouds Scattered Clouds 5000 ft
Scattered Clouds 7000 ft
Mostly Cloudy 12000 ft
Heat Index 82 °F
Dew Point 74 °F
Humidity 86%
Rainfall 0.00 in
Snow Depth Not available.
UV 0 out of 12
Pollen 9.70 out of 12
Air Quality Not available.
Flu Activity Not available.
METAR KD39 050134Z AUTO 18006KT 10SM -RA SCT050 SCT070 BKN120 25/23 A2989 RMK AO2 LTG DSNT N P0001 T02470227

10-Day Weather Forecast

×

Almanac

Astronomy

Sep. 04, 2015 Rise Set
Actual Time
Civil Twilight
Nautical Twilight
Astronomical Twilight
Moon
Length of Visible Light
Length of Day
Tomorrow will be .
, % of the Moon is Illuminated

Today's Extremes

State Highs State Lows

Community

WunderPhotos

Upload Photos

1,852,375 photos uploaded!

WunderBlogs® & News

Nearby

Air Quality

  Air Quality AQ Index Pollutant
Not available.

Snow Depth

Station Depth Elevation

Earthquake Activity

City Distance Mag. Time & Date
Minimum magnitude displayed is 2.5.

Coastal Water Temperatures

Place Temperature

Stations

Nearby Weather Stations

Station Location Temp. Windchill Dew Point Humidity Wind Precip. Elev Updated Type